Time;durP1;ratioP1;P1;durP2;ratioP2;P2;SDS_P1;SDS_P2;PMS_P1;PMS_P2;Temp;Humidity;BMP_temperature;BMP_pressure;BME280_temperature;BME280_humidity;BME280_pressure;Samples;Min_cycle;Max_cycle;Signal;HPM_P1;HPM_P2
2021/07/07 04:42:12;;;;;;;12.75;7.50;;;28.70;50.50;;;;;;4880384;29;20060;-77
2021/07/07 04:44:38;;;;;;;13.90;7.10;;;28.90;49.50;;;;;;4881920;29;20405;-78
2021/07/07 04:47:04;;;;;;;11.02;6.93;;;28.90;49.20;;;;;;4882061;29;20025;-78
2021/07/07 04:49:30;;;;;;;13.48;6.43;;;29.00;48.60;;;;;;4881864;29;20119;-80
2021/07/07 04:51:56;;;;;;;12.98;6.32;;;29.10;47.60;;;;;;4881843;29;20137;-81
2021/07/07 04:54:21;;;;;;;11.57;6.13;;;29.10;47.50;;;;;;4876514;29;20410;-81
2021/07/07 04:56:48;;;;;;;10.55;6.38;;;29.10;47.60;;;;;;4880869;29;20116;-82
2021/07/07 04:59:13;;;;;;;12.07;6.07;;;29.20;47.50;;;;;;4880059;29;20040;-80
2021/07/07 05:01:40;;;;;;;9.05;5.38;;;29.30;48.20;;;;;;4881221;29;20041;-81
2021/07/07 05:04:06;;;;;;;10.85;5.55;;;29.40;49.20;;;;;;4881518;29;20045;-81
2021/07/07 05:06:32;;;;;;;9.13;6.00;;;29.50;48.40;;;;;;4881364;29;20033;-80
2021/07/07 05:08:58;;;;;;;11.65;5.97;;;29.70;47.70;;;;;;4881395;29;20037;-80
2021/07/07 05:11:24;;;;;;;9.57;5.28;;;29.70;47.10;;;;;;4881162;29;20478;-80
2021/07/07 05:13:50;;;;;;;11.05;5.63;;;29.90;47.70;;;;;;4880852;29;20195;-80
2021/07/07 05:16:16;;;;;;;7.95;4.85;;;29.90;46.50;;;;;;4880447;29;20215;-80
2021/07/07 05:18:42;;;;;;;8.05;5.15;;;30.00;46.30;;;;;;4864444;29;20037;-80
2021/07/07 05:21:10;;;;;;;6.93;4.78;;;30.00;46.00;;;;;;4881056;29;20136;-80
2021/07/07 05:23:36;;;;;;;11.13;5.18;;;30.10;45.40;;;;;;4880912;29;20052;-80
2021/07/07 05:26:03;;;;;;;6.63;4.55;;;30.10;44.90;;;;;;4881084;29;20036;-80
2021/07/07 05:28:29;;;;;;;9.40;3.97;;;30.30;45.70;;;;;;4881156;29;20082;-79
2021/07/07 05:30:59;;;;;;;7.20;4.00;;;30.10;44.60;;;;;;4880965;29;20048;-79
2021/07/07 05:33:32;;;;;;;7.07;4.40;;;30.30;44.50;;;;;;4880960;29;20497;-79
2021/07/07 05:35:58;;;;;;;8.15;4.40;;;30.40;44.20;;;;;;4880966;29;20052;-79
2021/07/07 05:38:24;;;;;;;6.03;3.88;;;30.60;45.00;;;;;;4880895;29;20468;-79
2021/07/07 05:40:49;;;;;;;9.00;4.03;;;30.50;43.50;;;;;;4880704;29;20411;-79
2021/07/07 05:43:15;;;;;;;6.90;3.38;;;30.50;43.40;;;;;;4880510;29;20071;-80
2021/07/07 05:45:41;;;;;;;9.40;4.15;;;30.70;43.80;;;;;;4881136;29;20037;-80
2021/07/07 05:48:07;;;;;;;8.75;3.90;;;30.70;43.70;;;;;;4880847;29;20505;-80
2021/07/07 05:50:33;;;;;;;7.22;3.97;;;30.70;43.40;;;;;;4880955;29;20045;-80
2021/07/07 05:52:59;;;;;;;8.55;3.53;;;30.80;43.50;;;;;;4880711;29;20044;-80
2021/07/07 05:55:25;;;;;;;7.80;2.97;;;30.90;44.00;;;;;;4880713;29;20097;-80
2021/07/07 05:57:51;;;;;;;8.05;2.97;;;31.10;44.20;;;;;;4879332;29;20044;-81
2021/07/07 06:00:20;;;;;;;4.25;2.85;;;31.20;43.40;;;;;;4880739;29;20475;-80
2021/07/07 06:02:48;;;;;;;5.82;2.78;;;31.20;42.60;;;;;;4880969;29;20051;-80
2021/07/07 06:05:15;;;;;;;7.07;3.00;;;31.20;42.30;;;;;;4880660;29;20509;-80
2021/07/07 06:07:41;;;;;;;5.50;2.83;;;31.30;42.00;;;;;;4880279;29;20482;-80
2021/07/07 06:10:13;;;;;;;7.97;2.85;;;31.20;41.90;;;;;;4880100;29;20060;-80
2021/07/07 06:12:39;;;;;;;5.07;2.65;;;31.20;42.00;;;;;;4880511;29;20112;-80
2021/07/07 06:15:09;;;;;;;4.30;2.83;;;31.30;42.70;;;;;;4880426;29;20041;-79
2021/07/07 06:17:35;;;;;;;7.60;2.80;;;31.40;43.20;;;;;;4880170;29;20045;-78
2021/07/07 06:20:03;;;;;;;3.08;2.00;;;31.50;42.50;;;;;;4880218;29;20090;-79
2021/07/07 06:22:29;;;;;;;10.80;3.70;;;31.60;42.10;;;;;;4863297;29;20043;-75
2021/07/07 06:24:55;;;;;;;14.55;4.53;;;31.70;44.20;;;;;;4878469;29;20048;-76
2021/07/07 06:27:21;;;;;;;9.40;3.72;;;31.60;46.00;;;;;;4878706;29;20041;-76
2021/07/07 06:29:47;;;;;;;6.15;3.28;;;31.50;45.70;;;;;;4879865;29;20127;-76
2021/07/07 06:32:14;;;;;;;9.05;3.10;;;31.50;46.00;;;;;;4880214;29;20052;-76
2021/07/07 06:34:40;;;;;;;5.25;2.90;;;31.50;45.80;;;;;;4879919;29;20109;-76
2021/07/07 06:37:09;;;;;;;11.30;3.42;;;31.20;44.10;;;;;;4879707;29;20092;-76
2021/07/07 06:39:36;;;;;;;5.05;2.97;;;31.20;44.60;;;;;;4879876;29;20045;-75
2021/07/07 06:42:02;;;;;;;7.68;3.15;;;31.30;45.10;;;;;;4879185;29;20060;-75
2021/07/07 06:44:28;;;;;;;15.95;3.70;;;31.30;45.20;;;;;;4879510;29;20113;-76
2021/07/07 06:46:54;;;;;;;4.45;2.92;;;31.30;44.90;;;;;;4879610;29;20041;-75
2021/07/07 06:49:20;;;;;;;6.32;2.63;;;31.30;43.40;;;;;;4879341;29;20047;-75
2021/07/07 06:51:46;;;;;;;7.22;2.65;;;31.20;43.60;;;;;;4879519;29;20044;-76
2021/07/07 06:54:12;;;;;;;6.93;2.42;;;31.20;44.40;;;;;;4879538;29;20055;-77
2021/07/07 06:56:38;;;;;;;3.22;2.10;;;31.10;43.60;;;;;;4879720;29;20127;-77
2021/07/07 06:59:04;;;;;;;5.90;2.20;;;30.80;42.10;;;;;;4878744;29;20386;-77
2021/07/07 07:01:30;;;;;;;4.80;2.28;;;30.90;43.60;;;;;;4879142;29;20061;-75
2021/07/07 07:03:56;;;;;;;5.35;1.80;;;30.60;41.30;;;;;;4878036;29;20070;-76
2021/07/07 07:06:22;;;;;;;4.80;1.90;;;30.90;43.50;;;;;;4879442;29;20037;-77
2021/07/07 07:08:47;;;;;;;6.57;2.53;;;30.80;43.20;;;;;;4878890;29;20089;-78
2021/07/07 07:11:17;;;;;;;5.00;2.90;;;30.70;42.50;;;;;;4878247;29;20442;-75
2021/07/07 07:13:45;;;;;;;6.88;2.05;;;30.50;40.10;;;;;;4879195;29;20048;-76
2021/07/07 07:16:11;;;;;;;3.92;2.00;;;30.30;40.50;;;;;;4879685;29;20097;-75
2021/07/07 07:18:37;;;;;;;9.02;2.42;;;30.00;41.00;;;;;;4879210;29;20133;-76
2021/07/07 07:21:03;;;;;;;7.00;2.33;;;30.20;43.60;;;;;;4879248;29;20073;-77
2021/07/07 07:23:29;;;;;;;5.40;1.83;;;30.40;43.30;;;;;;4878894;29;20041;-78
2021/07/07 07:25:55;;;;;;;6.00;2.10;;;30.40;42.50;;;;;;4879355;29;20048;-78
2021/07/07 07:28:21;;;;;;;5.05;1.75;;;30.30;43.20;;;;;;4879298;29;20037;-79
2021/07/07 07:30:47;;;;;;;7.35;2.25;;;30.40;43.00;;;;;;4879250;29;20581;-81
2021/07/07 07:33:13;;;;;;;2.58;1.88;;;30.50;43.20;;;;;;4862415;29;20048;-82
2021/07/07 07:35:41;;;;;;;3.72;2.00;;;30.50;43.10;;;;;;4879060;29;20397;-86
2021/07/07 07:38:12;;;;;;;5.40;2.00;;;30.20;42.60;;;;;;4877718;29;20049;-86
2021/07/07 07:40:39;;;;;;;3.75;1.73;;;30.40;42.60;;;;;;4879427;29;20104;-82
2021/07/07 07:43:07;;;;;;;4.40;1.92;;;30.50;43.00;;;;;;4877818;29;20075;-79
2021/07/07 07:45:33;;;;;;;5.00;2.15;;;30.50;43.00;;;;;;4878993;29;20121;-79
2021/07/07 07:48:00;;;;;;;6.25;2.15;;;30.50;42.80;;;;;;4878881;29;20513;-76
2021/07/07 07:50:27;;;;;;;6.15;2.90;;;30.40;42.10;;;;;;4878965;29;20136;-81
2021/07/07 07:52:53;;;;;;;5.22;2.40;;;30.40;43.00;;;;;;4862563;29;20040;-79
2021/07/07 07:55:20;;;;;;;6.93;2.13;;;30.50;43.10;;;;;;4879077;29;20052;-80
2021/07/07 07:57:48;;;;;;;2.28;1.80;;;30.40;42.90;;;;;;4879952;29;20497;-82
2021/07/07 08:00:22;;;;;;;3.30;2.10;;;30.30;41.50;;;;;;4877907;29;20045;-83
2021/07/07 08:02:49;;;;;;;5.25;1.90;;;30.30;42.30;;;;;;4879130;29;20136;-82
2021/07/07 08:05:15;;;;;;;2.65;2.13;;;30.20;41.80;;;;;;4877222;29;20044;-82
2021/07/07 08:07:42;;;;;;;5.38;2.42;;;30.20;42.80;;;;;;4877832;29;20075;-85
2021/07/07 08:10:10;;;;;;;2.97;1.70;;;30.30;43.30;;;;;;4878897;29;20041;-82
2021/07/07 08:12:36;;;;;;;5.55;2.22;;;30.20;43.30;;;;;;4879493;29;20049;-80
2021/07/07 08:15:04;;;;;;;11.88;2.53;;;30.20;43.40;;;;;;4882493;29;20045;-81
2021/07/07 08:17:30;;;;;;;6.43;2.17;;;30.10;43.00;;;;;;4882289;29;20080;-82
2021/07/07 08:19:56;;;;;;;3.92;1.80;;;29.90;41.80;;;;;;4881029;29;20037;-77
2021/07/07 08:22:22;;;;;;;4.30;1.95;;;29.70;41.50;;;;;;4882457;29;20409;-78
2021/07/07 08:24:48;;;;;;;2.10;1.90;;;29.90;42.50;;;;;;4881360;29;20036;-82
2021/07/07 08:27:14;;;;;;;8.75;2.30;;;29.80;42.10;;;;;;4882662;29;20045;-79
2021/07/07 08:29:40;;;;;;;4.47;2.00;;;29.80;43.50;;;;;;4882199;29;20040;-80
2021/07/07 08:32:08;;;;;;;5.97;2.10;;;29.90;43.00;;;;;;4866172;29;20265;-80
2021/07/07 08:34:35;;;;;;;4.18;1.75;;;29.80;42.70;;;;;;4882164;29;20049;-80
2021/07/07 08:37:01;;;;;;;3.90;2.00;;;29.90;42.30;;;;;;4882212;29;20084;-79
2021/07/07 08:39:29;;;;;;;3.90;1.83;;;29.90;43.10;;;;;;4880798;29;20052;-77
2021/07/07 08:41:55;;;;;;;2.22;1.90;;;29.90;43.60;;;;;;4880831;29;20101;-78
2021/07/07 08:44:21;;;;;;;6.22;2.20;;;29.90;43.90;;;;;;4880526;29;20457;-79
2021/07/07 08:46:49;;;;;;;6.90;2.22;;;29.90;43.80;;;;;;4881775;29;20051;-79
2021/07/07 08:49:15;;;;;;;4.15;1.83;;;29.90;43.20;;;;;;4880367;29;20383;-77
2021/07/07 08:51:41;;;;;;;2.78;1.80;;;29.90;44.10;;;;;;4881674;29;20634;-77
2021/07/07 08:54:11;;;;;;;3.70;1.77;;;29.90;44.20;;;;;;4881736;29;20048;-77
2021/07/07 08:56:41;;;;;;;4.78;2.00;;;29.90;44.10;;;;;;4881924;29;20049;-77
2021/07/07 08:59:12;;;;;;;4.85;2.08;;;29.80;43.10;;;;;;4881772;29;20049;-77
2021/07/07 09:02:03;;;;;;;5.32;2.10;;;29.80;42.70;;;;;;4881980;29;20041;-78
2021/07/07 09:04:40;;;;;;;3.88;1.90;;;29.80;43.70;;;;;;4881886;29;20052;-79
2021/07/07 09:07:10;;;;;;;7.75;2.20;;;29.60;42.20;;;;;;4880527;29;20183;-78
2021/07/07 09:09:41;;;;;;;3.05;2.10;;;29.60;42.30;;;;;;4880227;29;20040;-78
2021/07/07 09:12:25;;;;;;;4.93;2.17;;;29.70;42.50;;;;;;4880135;29;20048;-78
2021/07/07 09:15:04;;;;;;;2.47;2.00;;;29.50;42.20;;;;;;4880457;29;20056;-77
2021/07/07 09:17:38;;;;;;;3.08;1.85;;;29.50;42.30;;;;;;4881423;29;20471;-78
2021/07/07 09:20:21;;;;;;;3.75;2.25;;;29.40;42.20;;;;;;4864822;29;20109;-78
2021/07/07 09:22:49;;;;;;;8.15;2.38;;;29.50;43.30;;;;;;4881595;29;20051;-79
2021/07/07 09:25:18;;;;;;;4.90;2.20;;;29.60;43.70;;;;;;4880828;29;20131;-79
2021/07/07 09:27:45;;;;;;;8.32;2.13;;;29.40;44.00;;;;;;4864225;29;20044;-79
2021/07/07 09:30:13;;;;;;;2.50;1.85;;;29.40;44.60;;;;;;4881385;29;20409;-81
2021/07/07 09:32:44;;;;;;;3.08;2.22;;;29.30;44.60;;;;;;4880502;29;20040;-79
2021/07/07 09:35:11;;;;;;;5.03;2.38;;;29.30;44.40;;;;;;4879762;29;20064;-78
2021/07/07 09:37:43;;;;;;;8.85;2.10;;;29.30;44.40;;;;;;4881149;29;20037;-79
2021/07/07 09:40:11;;;;;;;2.20;1.90;;;29.10;45.00;;;;;;4879961;29;20104;-82
2021/07/07 09:42:39;;;;;;;2.53;1.85;;;29.20;44.40;;;;;;4881208;29;20076;-81
2021/07/07 09:45:11;;;;;;;5.63;2.05;;;29.00;43.50;;;;;;4864138;29;20467;-79
2021/07/07 09:47:38;;;;;;;3.80;2.22;;;28.90;43.50;;;;;;4864412;29;20045;-81
2021/07/07 09:50:05;;;;;;;4.55;2.00;;;29.00;43.10;;;;;;4880808;29;20037;-84
2021/07/07 09:52:32;;;;;;;6.43;2.20;;;29.10;42.80;;;;;;4880958;29;20063;-87
2021/07/07 09:55:01;;;;;;;2.90;1.98;;;29.20;42.90;;;;;;4879414;29;20135;-85
2021/07/07 09:57:27;;;;;;;3.47;2.22;;;29.00;43.00;;;;;;4880944;29;20037;-85
2021/07/07 09:59:53;;;;;;;3.88;2.40;;;28.90;43.60;;;;;;4880943;29;20068;-84
2021/07/07 10:02:19;;;;;;;3.60;2.10;;;29.00;43.60;;;;;;4880507;29;20100;-84
2021/07/07 10:04:45;;;;;;;4.18;2.20;;;29.00;43.90;;;;;;4879284;29;20443;-84
2021/07/07 10:07:14;;;;;;;3.15;2.20;;;29.10;44.30;;;;;;4880640;29;20044;-85
2021/07/07 10:09:44;;;;;;;3.88;2.17;;;29.10;44.50;;;;;;4863791;29;20463;-85
2021/07/07 10:12:11;;;;;;;3.33;2.25;;;29.10;44.40;;;;;;4880724;29;20371;-85
2021/07/07 10:14:37;;;;;;;3.00;2.10;;;28.90;44.50;;;;;;4879131;29;20049;-84
2021/07/07 10:17:04;;;;;;;4.97;2.50;;;29.00;44.80;;;;;;4880367;29;20093;-89
2021/07/07 10:19:31;;;;;;;4.72;2.47;;;29.10;44.90;;;;;;4863552;29;20036;-88
2021/07/07 10:21:58;;;;;;;2.38;2.17;;;29.20;45.30;;;;;;4878857;29;20421;-88
2021/07/07 10:24:33;;;;;;;3.00;2.10;;;29.30;45.10;;;;;;4879174;29;20446;-86
2021/07/07 10:27:02;;;;;;;3.05;2.38;;;29.30;44.70;;;;;;4880329;29;20378;-87
2021/07/07 10:29:29;;;;;;;3.85;2.17;;;29.20;45.00;;;;;;4878951;29;20402;-93
2021/07/07 10:31:56;;;;;;;3.63;2.30;;;29.20;44.50;;;;;;4879068;29;20112;-90
2021/07/07 10:34:25;;;;;;;4.82;2.70;;;29.00;44.10;;;;;;4863504;29;20045;-89
2021/07/07 10:36:52;;;;;;;4.97;2.35;;;28.90;44.20;;;;;;4879269;29;20064;-90
2021/07/07 10:39:18;;;;;;;5.07;2.30;;;29.00;44.50;;;;;;4879805;29;20041;-83
2021/07/07 10:41:48;;;;;;;3.97;2.05;;;29.00;45.00;;;;;;4880093;29;20477;-83
2021/07/07 10:44:23;;;;;;;3.92;2.22;;;29.00;44.50;;;;;;4879883;29;20617;-85
2021/07/07 10:47:07;;;;;;;4.50;2.13;;;28.90;44.60;;;;;;4879829;29;20123;-85
2021/07/07 10:49:41;;;;;;;7.05;2.47;;;29.00;44.60;;;;;;4878810;29;20040;-84
2021/07/07 10:52:10;;;;;;;5.97;2.23;;;29.10;44.50;;;;;;4879710;29;20527;-87
2021/07/07 10:54:41;;;;;;;2.60;2.40;;;29.20;44.60;;;;;;4863227;29;20393;-78
2021/07/07 10:57:41;;;;;;;5.32;2.35;;;29.10;44.50;;;;;;4879640;29;20080;-80
2021/07/07 11:00:31;;;;;;;4.63;2.28;;;29.00;44.10;;;;;;4878211;29;20047;-81
2021/07/07 11:03:32;;;;;;;3.88;2.38;;;29.00;44.80;;;;;;4879722;29;20045;-82
2021/07/07 11:06:28;;;;;;;5.47;2.53;;;29.10;44.50;;;;;;4879370;29;20045;-82
2021/07/07 11:09:10;;;;;;;3.53;2.30;;;29.10;44.50;;;;;;4879482;29;20150;-84
2021/07/07 11:11:38;;;;;;;3.00;2.30;;;29.00;44.80;;;;;;4878529;29;20501;-82
2021/07/07 11:14:11;;;;;;;6.43;2.30;;;29.10;44.60;;;;;;4879880;29;20039;-83
2021/07/07 11:16:50;;;;;;;2.50;2.30;;;28.90;44.40;;;;;;4879621;29;20056;-89
2021/07/07 11:19:38;;;;;;;5.07;2.60;;;29.10;43.80;;;;;;4880188;29;20036;-84
2021/07/07 11:22:04;;;;;;;4.03;2.70;;;29.10;44.40;;;;;;4880187;29;20124;-85
2021/07/07 11:24:30;;;;;;;5.03;2.60;;;29.20;44.40;;;;;;4879547;29;20128;-83
2021/07/07 11:26:56;;;;;;;3.78;2.10;;;29.20;44.10;;;;;;4879656;29;20041;-78
2021/07/07 11:29:22;;;;;;;5.45;2.47;;;29.10;44.60;;;;;;4879187;29;20033;-82
2021/07/07 11:31:48;;;;;;;2.38;2.00;;;29.00;44.40;;;;;;4862194;29;20049;-81
2021/07/07 11:34:14;;;;;;;2.72;2.15;;;29.10;43.80;;;;;;4879383;29;20494;-80
2021/07/07 11:36:40;;;;;;;2.22;1.90;;;29.20;43.50;;;;;;4880063;29;20055;-80
2021/07/07 11:39:07;;;;;;;3.63;2.20;;;29.20;43.40;;;;;;4863330;29;20033;-84
2021/07/07 11:41:34;;;;;;;4.30;2.33;;;29.20;44.30;;;;;;4879216;29;20065;-83
2021/07/07 11:44:00;;;;;;;3.72;2.13;;;29.20;44.20;;;;;;4879739;29;20045;-83
2021/07/07 11:46:31;;;;;;;3.13;2.30;;;29.30;44.70;;;;;;4879922;29;20037;-82
2021/07/07 11:49:08;;;;;;;3.70;2.30;;;29.10;43.80;;;;;;4882115;29;20509;-83
2021/07/07 11:51:37;;;;;;;3.45;2.70;;;29.00;43.60;;;;;;4883054;29;20041;-82
2021/07/07 11:54:03;;;;;;;2.80;2.10;;;28.90;43.20;;;;;;4881724;29;20553;-83
2021/07/07 11:56:30;;;;;;;3.28;2.35;;;29.00;42.70;;;;;;4883332;29;20048;-82
2021/07/07 11:58:58;;;;;;;2.20;1.92;;;28.90;41.90;;;;;;4882925;29;20041;-82
2021/07/07 12:01:28;;;;;;;3.30;2.33;;;29.00;42.30;;;;;;4881576;29;20037;-83
2021/07/07 12:04:09;;;;;;;2.42;2.20;;;29.10;42.50;;;;;;4882851;29;20044;-82
2021/07/07 12:06:46;;;;;;;2.60;2.20;;;29.10;42.60;;;;;;4883057;29;20048;-82
2021/07/07 12:09:19;;;;;;;3.97;2.03;;;28.90;42.30;;;;;;4882929;29;20052;-82
2021/07/07 12:11:57;;;;;;;3.50;2.38;;;29.10;42.10;;;;;;4883177;29;20040;-83
2021/07/07 12:14:24;;;;;;;4.30;2.20;;;29.20;43.10;;;;;;4882718;29;20149;-82
2021/07/07 12:16:51;;;;;;;3.88;2.08;;;29.20;43.00;;;;;;4882676;29;20040;-81
2021/07/07 12:19:18;;;;;;;4.07;2.17;;;29.20;43.10;;;;;;4882437;29;20045;-81
2021/07/07 12:21:53;;;;;;;3.78;2.30;;;29.20;42.90;;;;;;4882500;29;20067;-81
2021/07/07 12:24:31;;;;;;;2.75;2.25;;;29.30;43.40;;;;;;4882533;29;20037;-81
2021/07/07 12:27:01;;;;;;;3.50;2.72;;;29.30;43.60;;;;;;4866523;29;20048;-82
2021/07/07 12:29:35;;;;;;;2.85;2.55;;;29.20;43.50;;;;;;4882191;29;20044;-82
2021/07/07 12:32:04;;;;;;;2.87;2.53;;;29.20;43.30;;;;;;4881055;29;20097;-82
2021/07/07 12:34:39;;;;;;;5.18;2.45;;;29.30;43.30;;;;;;4882094;29;20053;-82
2021/07/07 12:37:09;;;;;;;3.05;2.47;;;29.20;42.80;;;;;;4882320;29;20135;-81
2021/07/07 12:39:41;;;;;;;3.03;2.30;;;29.30;42.80;;;;;;4882150;29;20427;-80
2021/07/07 12:42:17;;;;;;;3.40;2.05;;;29.30;43.20;;;;;;4882244;29;20164;-80
2021/07/07 12:44:43;;;;;;;2.50;2.20;;;29.30;42.80;;;;;;4865302;29;20446;-81
2021/07/07 12:47:09;;;;;;;2.78;1.92;;;29.30;42.60;;;;;;4864986;29;20033;-81
2021/07/07 12:49:38;;;;;;;2.72;2.05;;;29.30;42.70;;;;;;4881687;29;20064;-81
2021/07/07 12:52:30;;;;;;;3.30;2.38;;;29.30;42.80;;;;;;4881571;29;20044;-82
2021/07/07 12:55:11;;;;;;;2.60;2.40;;;29.30;42.90;;;;;;4881934;29;20498;-82
2021/07/07 12:57:41;;;;;;;3.80;2.35;;;29.20;42.00;;;;;;4880365;29;20093;-82
2021/07/07 13:00:09;;;;;;;2.75;2.22;;;29.30;41.80;;;;;;4879935;29;20418;-81
2021/07/07 13:02:55;;;;;;;3.70;2.15;;;29.30;42.60;;;;;;4881605;29;20041;-81
2021/07/07 13:05:41;;;;;;;2.50;2.30;;;29.30;43.40;;;;;;4880421;29;20045;-81
2021/07/07 13:08:08;;;;;;;2.58;2.38;;;29.30;43.30;;;;;;4881815;29;20148;-82
2021/07/07 13:10:40;;;;;;;2.70;1.92;;;29.30;43.40;;;;;;4881379;29;20043;-81
2021/07/07 13:13:22;;;;;;;1.98;1.88;;;29.30;43.30;;;;;;4881732;29;20379;-81
2021/07/07 13:16:18;;;;;;;2.08;1.98;;;29.20;43.10;;;;;;4880350;29;20041;-81
2021/07/07 13:18:57;;;;;;;3.95;2.25;;;29.20;43.60;;;;;;4883199;29;20116;-81
2021/07/07 13:22:05;;;;;;;2.85;2.60;;;29.20;43.50;;;;;;4880102;29;20085;-82
2021/07/07 13:24:34;;;;;;;2.42;2.20;;;29.20;43.90;;;;;;4881230;29;20044;-82
2021/07/07 13:27:06;;;;;;;3.83;2.47;;;29.20;44.00;;;;;;4880253;29;20113;-81
2021/07/07 13:29:35;;;;;;;2.58;2.25;;;29.10;43.70;;;;;;4881912;29;20037;-82
2021/07/07 13:32:23;;;;;;;2.47;2.10;;;29.20;43.70;;;;;;4880841;29;20053;-81
2021/07/07 13:35:04;;;;;;;3.42;2.55;;;29.20;44.00;;;;;;4880029;29;20083;-81
2021/07/07 13:37:36;;;;;;;3.90;2.42;;;29.20;44.00;;;;;;4881265;29;20509;-82
2021/07/07 13:40:10;;;;;;;2.88;2.60;;;29.20;44.10;;;;;;4864372;29;20029;-81
2021/07/07 13:42:38;;;;;;;3.63;2.63;;;29.30;44.10;;;;;;4879704;29;20470;-82
2021/07/07 13:45:06;;;;;;;4.55;2.80;;;29.30;44.10;;;;;;4879752;29;20056;-81
2021/07/07 13:47:32;;;;;;;3.03;2.30;;;29.30;44.10;;;;;;4880971;29;20049;-81
2021/07/07 13:50:00;;;;;;;4.50;2.83;;;29.20;43.90;;;;;;4880666;29;20033;-82
2021/07/07 13:52:29;;;;;;;4.15;2.67;;;29.20;43.80;;;;;;4879496;29;20115;-80
2021/07/07 13:54:55;;;;;;;2.50;2.30;;;29.20;43.90;;;;;;4880649;29;20044;-83
2021/07/07 13:57:21;;;;;;;4.50;2.42;;;29.30;43.90;;;;;;4880721;29;20477;-82
2021/07/07 13:59:48;;;;;;;3.95;2.60;;;29.30;44.10;;;;;;4880832;29;20136;-85
2021/07/07 14:02:14;;;;;;;3.53;2.30;;;29.30;44.10;;;;;;4879431;29;20055;-82
2021/07/07 14:04:41;;;;;;;2.30;2.10;;;29.30;44.30;;;;;;4879237;29;20052;-80
2021/07/07 14:07:07;;;;;;;4.22;2.08;;;29.30;44.80;;;;;;4880217;29;20113;-78
2021/07/07 14:09:34;;;;;;;4.55;2.55;;;29.30;44.40;;;;;;4878816;29;20127;-84
2021/07/07 14:12:01;;;;;;;4.28;2.58;;;29.20;44.30;;;;;;4879830;29;20049;-84
2021/07/07 14:14:31;;;;;;;3.30;2.55;;;29.20;44.60;;;;;;4880267;29;20156;-81
2021/07/07 14:16:58;;;;;;;4.50;2.58;;;29.20;45.00;;;;;;4880731;29;20420;-79
2021/07/07 14:19:26;;;;;;;7.97;2.92;;;29.30;45.20;;;;;;4880374;29;20067;-91
2021/07/07 14:21:52;;;;;;;6.13;2.40;;;29.30;45.20;;;;;;4880112;29;20047;-87
2021/07/07 14:24:18;;;;;;;4.10;2.42;;;29.30;45.00;;;;;;4879082;29;20037;-88
2021/07/07 14:26:44;;;;;;;4.40;2.40;;;29.20;44.40;;;;;;4878935;29;20355;-87
2021/07/07 14:29:11;;;;;;;5.57;2.55;;;29.10;44.80;;;;;;4863428;29;20041;-87
2021/07/07 14:31:37;;;;;;;6.32;2.35;;;29.00;45.10;;;;;;4880087;29;20045;-83
2021/07/07 14:34:03;;;;;;;5.53;2.83;;;29.20;45.00;;;;;;4878756;29;20044;-81
2021/07/07 14:36:30;;;;;;;3.95;2.95;;;29.20;45.10;;;;;;4879770;29;20565;-81
2021/07/07 14:38:58;;;;;;;6.18;2.40;;;29.20;45.00;;;;;;4878964;29;20037;-81
2021/07/07 14:41:31;;;;;;;3.65;2.40;;;29.30;45.30;;;;;;4879635;29;20068;-78
2021/07/07 14:44:01;;;;;;;4.30;2.35;;;29.10;45.10;;;;;;4879928;29;20052;-80
2021/07/07 14:46:28;;;;;;;3.55;2.60;;;29.20;45.30;;;;;;4878256;29;20056;-82
2021/07/07 14:48:54;;;;;;;3.72;2.40;;;29.30;45.20;;;;;;4879801;29;20036;-81
2021/07/07 14:51:21;;;;;;;2.63;2.40;;;29.20;44.70;;;;;;4878342;29;20049;-81
2021/07/07 14:53:47;;;;;;;4.00;2.88;;;29.30;45.10;;;;;;4879762;29;20060;-79
2021/07/07 14:56:13;;;;;;;4.00;2.40;;;29.20;43.90;;;;;;4878488;29;20052;-80
2021/07/07 14:58:39;;;;;;;5.55;2.97;;;29.20;44.60;;;;;;4878082;29;20041;-85
2021/07/07 15:01:05;;;;;;;3.85;2.83;;;29.20;45.00;;;;;;4879106;29;20414;-79
2021/07/07 15:03:30;;;;;;;7.00;2.90;;;29.30;45.10;;;;;;4879097;29;20068;-82
2021/07/07 15:05:57;;;;;;;2.90;2.60;;;29.30;45.10;;;;;;4879331;29;20056;-82
2021/07/07 15:08:23;;;;;;;6.53;3.13;;;29.20;44.40;;;;;;4879251;29;20055;-78
2021/07/07 15:10:49;;;;;;;7.80;3.35;;;29.30;44.10;;;;;;4879345;29;20037;-81
2021/07/07 15:13:15;;;;;;;4.78;3.20;;;29.30;43.70;;;;;;4878051;29;20045;-80
2021/07/07 15:15:41;;;;;;;3.40;3.10;;;29.30;43.90;;;;;;4879130;29;20051;-81
2021/07/07 15:18:08;;;;;;;2.88;2.55;;;29.30;44.10;;;;;;4878915;29;20638;-83
2021/07/07 15:20:36;;;;;;;3.47;3.03;;;29.30;44.40;;;;;;4878941;29;20546;-80
2021/07/07 15:23:02;;;;;;;5.38;3.05;;;29.30;44.20;;;;;;4861893;29;20043;-80
2021/07/07 15:25:29;;;;;;;4.50;3.08;;;29.20;44.50;;;;;;4878884;29;20520;-79
2021/07/07 15:27:56;;;;;;;4.47;3.13;;;29.30;44.90;;;;;;4879099;29;20033;-80
2021/07/07 15:30:23;;;;;;;3.88;3.08;;;29.30;45.80;;;;;;4877524;29;20045;-82
2021/07/07 15:32:50;;;;;;;3.60;2.67;;;29.30;45.40;;;;;;4879715;29;20143;-82
2021/07/07 15:35:16;;;;;;;4.95;3.40;;;29.30;45.30;;;;;;4878801;29;20089;-84
2021/07/07 15:37:43;;;;;;;5.63;3.00;;;29.30;46.00;;;;;;4877892;29;20058;-83
2021/07/07 15:40:10;;;;;;;6.68;3.40;;;29.30;45.80;;;;;;4878902;29;20053;-87
2021/07/07 15:42:37;;;;;;;4.47;3.22;;;29.30;45.30;;;;;;4878983;29;20040;-86
2021/07/07 15:45:05;;;;;;;4.22;3.53;;;29.30;45.60;;;;;;4879092;29;20414;-84
2021/07/07 15:47:31;;;;;;;5.30;3.53;;;29.30;44.70;;;;;;4876565;29;20029;-84
2021/07/07 15:49:57;;;;;;;5.90;3.72;;;29.30;45.10;;;;;;4877922;29;20045;-93
2021/07/07 15:52:23;;;;;;;4.65;3.30;;;29.30;44.70;;;;;;4878489;29;20040;-89
2021/07/07 15:54:49;;;;;;;3.42;3.10;;;29.30;44.60;;;;;;4879965;29;20037;-89
2021/07/07 15:57:15;;;;;;;4.47;3.03;;;29.30;43.90;;;;;;4879683;29;20131;-91
2021/07/07 15:59:41;;;;;;;5.57;2.88;;;29.20;43.50;;;;;;4879357;29;20044;-88
2021/07/07 16:02:07;;;;;;;4.88;3.30;;;29.30;43.80;;;;;;4879074;29;20105;-91
2021/07/07 16:04:33;;;;;;;5.10;3.00;;;29.30;43.30;;;;;;4877154;29;20462;-90
2021/07/07 16:06:59;;;;;;;3.85;2.83;;;29.20;43.20;;;;;;4878308;29;20037;-88
2021/07/07 16:09:25;;;;;;;6.32;3.42;;;29.20;43.40;;;;;;4879184;29;20041;-91
2021/07/07 16:11:51;;;;;;;5.22;3.17;;;29.30;43.60;;;;;;4879886;29;20053;-95
2021/07/07 16:14:19;;;;;;;5.07;3.00;;;29.30;43.90;;;;;;4887347;29;20041;-96
2021/07/07 16:16:45;;;;;;;5.07;3.10;;;29.30;43.50;;;;;;4878540;29;20464;-90
2021/07/07 16:19:12;;;;;;;5.70;3.28;;;29.40;43.90;;;;;;4879756;29;20045;-85
2021/07/07 16:21:38;;;;;;;6.03;3.28;;;29.40;44.10;;;;;;4878794;29;20044;-86
2021/07/07 16:24:05;;;;;;;7.15;2.90;;;29.30;44.40;;;;;;4879329;29;20033;-88
2021/07/07 16:26:30;;;;;;;5.13;3.03;;;29.40;43.70;;;;;;4878837;29;20064;-82
2021/07/07 16:28:56;;;;;;;7.32;3.17;;;29.40;45.90;;;;;;4878927;29;20087;-90
2021/07/07 16:31:28;;;;;;;8.00;3.55;;;29.40;46.20;;;;;;4878667;29;20482;-88
2021/07/07 16:33:54;;;;;;;5.70;3.25;;;29.40;47.00;;;;;;4879819;29;20482;-91
2021/07/07 16:36:20;;;;;;;6.72;3.20;;;29.40;45.80;;;;;;4882066;29;20080;-92
2021/07/07 16:38:47;;;;;;;5.25;3.38;;;29.30;44.40;;;;;;4882021;29;20043;-86
2021/07/07 16:41:13;;;;;;;9.60;2.70;;;29.30;44.70;;;;;;4881929;29;20417;-84
2021/07/07 16:43:40;;;;;;;7.25;3.08;;;29.30;45.00;;;;;;4881964;29;20053;-83
2021/07/07 16:46:06;;;;;;;6.53;3.30;;;29.30;43.80;;;;;;4882067;29;20059;-90
2021/07/07 16:48:32;;;;;;;6.53;3.47;;;29.30;44.00;;;;;;4881031;29;20033;-87
2021/07/07 16:50:58;;;;;;;4.32;3.20;;;29.30;44.00;;;;;;4882103;29;20049;-84
2021/07/07 16:53:24;;;;;;;4.30;3.67;;;29.30;44.80;;;;;;4883019;29;20417;-87
2021/07/07 16:55:51;;;;;;;3.53;2.97;;;29.30;43.80;;;;;;4882897;29;20132;-86
2021/07/07 16:58:18;;;;;;;6.95;2.90;;;29.30;43.80;;;;;;4882919;29;20045;-88
2021/07/07 17:00:45;;;;;;;4.32;3.10;;;29.20;44.60;;;;;;4883059;29;20033;-87
2021/07/07 17:03:11;;;;;;;6.65;2.83;;;29.20;44.60;;;;;;4882850;29;20077;-88
2021/07/07 17:05:37;;;;;;;6.50;3.20;;;29.20;44.10;;;;;;4883431;29;20443;-88
2021/07/07 17:08:03;;;;;;;2.97;2.63;;;29.20;44.30;;;;;;4881663;29;20044;-88
2021/07/07 17:10:32;;;;;;;4.53;2.97;;;29.20;44.60;;;;;;4882739;29;20048;-87
2021/07/07 17:12:58;;;;;;;5.38;3.20;;;29.20;44.20;;;;;;4883400;29;20036;-88
2021/07/07 17:15:24;;;;;;;5.03;2.95;;;29.10;43.80;;;;;;4882533;29;20158;-88
2021/07/07 17:17:50;;;;;;;5.53;3.50;;;29.10;43.70;;;;;;4881397;29;20406;-88
2021/07/07 17:20:16;;;;;;;5.18;3.22;;;29.20;44.00;;;;;;4882329;29;20053;-88
2021/07/07 17:22:43;;;;;;;4.55;3.22;;;29.10;43.00;;;;;;4881508;29;20049;-88
2021/07/07 17:25:09;;;;;;;6.72;3.33;;;29.10;43.70;;;;;;4879929;29;20041;-88
2021/07/07 17:27:35;;;;;;;7.63;3.63;;;29.10;44.60;;;;;;4881031;29;20481;-88
2021/07/07 17:30:03;;;;;;;5.40;3.70;;;29.10;44.20;;;;;;4881469;29;20447;-89
2021/07/07 17:32:28;;;;;;;6.43;3.20;;;29.20;44.60;;;;;;4881443;29;20049;-87
2021/07/07 17:34:54;;;;;;;3.50;3.03;;;29.10;45.10;;;;;;4881721;29;20044;-88